x

East Dellwood (46207) Wave Buoy

3:00am - Wed 23rd Apr 2014 All times are PDT. -7 hours from GMT.

  • Sig Wave height 7.9ft
  • Peak Period 12s
  • Wind
    7mph, 9mph gusts
  • Sea Temp 47°f
  • Air Temp 47°f
  • Sea Pressure 1008.5mb
  • East Dellwood
  • East Dellwood

More Historic Weather Station data

Upgrade to MSW Pro to gain access to the past 30 days of data for over 8000 Wavebouys and Weather Stations around the globe.

Join Pro

Comparision Forecast

View Surf forecast
   
Wed 04/23 3:00am 8ft 12s 7 9 mph 1008.5mb 47f 47f
2:00am 8ft 12s 9 11 mph 1008.6mb 47f 46f
1:00am 8.5ft 12s 9 11 mph 1008.7mb 47f 47f
12:00am 9ft 12s 9 11 mph 1008.6mb 47f 47f
Tue 04/22 11:00pm 9ft 12s 4 11 mph 1008.5mb 47f 46f
10:00pm 9ft 12s 13 16 mph 1008.6mb 47f 47f
9:00pm 9ft 12s 11 16 mph 1008mb 47f 45f
8:00pm 9ft 12s 11 16 mph 1007.7mb 47f 46f
7:00pm 9.5ft 12s 16 20 mph 1007.5mb 47f 46f
6:00pm 8.5ft 12s 11 22 mph 1007.5mb 47f 47f
5:00pm 8.5ft 12s 18 22 mph 1007.3mb 47f 48f
4:00pm 9ft 14s 18 22 mph 1007.4mb 47f 48f
3:00pm 8ft 14s 20 25 mph 1007.6mb 47f 48f
2:00pm 8ft 13s 20 25 mph 1007.4mb 47f 47f
1:00pm 9ft 12s 20 25 mph 1007.5mb 47f 47f
12:00pm 8.5ft 13s 18 22 mph 1007.6mb 47f 47f
11:00am 8ft 12s 16 20 mph 1007.5mb 47f 47f
10:00am 8.5ft 12s 16 20 mph 1007.5mb 47f 47f
9:00am 8.5ft 13s 16 20 mph 1007.6mb 47f 47f
8:00am 8.5ft 11s 16 18 mph 1007.9mb 47f 46f
7:00am 9ft 12s 16 18 mph 1008.2mb 47f 46f
6:00am 8ft 14s 13 18 mph 1008.6mb 47f 46f
5:00am 8.5ft 12s 13 18 mph 1009.2mb 47f 46f
4:00am 8.5ft 14s 13 16 mph 1009.7mb 47f 46f
3:00am 8.5ft 12s 11 13 mph 1010.4mb 47f 46f
2:00am 8.5ft 12s 9 13 mph 1011.3mb 47f 46f
1:00am 9ft 13s 9 13 mph 1011.9mb 47f 47f
12:00am 9ft 12s 9 11 mph 1012.2mb 47f 47f
Mon 04/21 11:00pm 10ft 13s 9 11 mph 1012.6mb 47f 47f
10:00pm 10ft 12s 9 11 mph 1013mb 47f 47f
9:00pm 11ft 13s 7 9 mph 1013.3mb 48f 47f
8:00pm 11ft 12s 4 7 mph 1013.6mb 48f 47f
7:00pm 11ft 12s 7 9 mph 1014.1mb 48f 48f
6:00pm 11ft 12s 7 9 mph 1014.6mb 48f 48f
5:00pm 11ft 12s 7 9 mph 1015.2mb 49f 48f
4:00pm 11ft 13s 7 9 mph 1015.9mb 48f 48f
3:00pm 11.5ft 12s 7 9 mph 1016.2mb 48f 48f
2:00pm 11.5ft 11s 7 9 mph 1016.4mb 48f 47f
1:00pm 12ft 12s 9 11 mph 1016.6mb 48f 47f
12:00pm 11.5ft 13s 9 11 mph 1016.8mb 48f 47f
11:00am 12ft 13s 11 18 mph 1016.7mb 47f 47f
10:00am 13ft 12s 9 11 mph 1016.6mb 47f 47f
9:00am 14ft 13s 9 13 mph 1016.6mb 47f 47f
8:00am 13.5ft 12s 9 11 mph 1016.7mb 47f 47f
7:00am 14.5ft 14s 9 13 mph 1016.5mb 47f 47f
6:00am 15.5ft 13s 11 13 mph 1016.6mb 47f 46f
5:00am 15.5ft 13s 13 18 mph 1016.6mb 47f 46f
4:00am 15.5ft 13s 13 18 mph 1016.6mb 47f 47f
3:00am 15ft 13s 13 18 mph 1016.7mb 47f 47f
2:00am 15.5ft 12s 20 25 mph 1016.5mb 47f 46f
1:00am 16ft 14s 18 22 mph 1016.1mb 47f 47f
12:00am 14ft 10s 18 22 mph 1015.9mb 47f 47f
Sun 04/20 11:00pm 15ft 13s 16 20 mph 1015.5mb 47f 47f
10:00pm 16ft 14s 18 25 mph 1015mb 47f 47f
9:00pm 16ft 10s 20 27 mph 1014.4mb 47f 45f
8:00pm 15.5ft 14s 18 22 mph 1013.6mb 47f 47f
7:00pm 15ft 12s 20 25 mph 1013.2mb 47f 47f
6:00pm 15ft 14s 20 25 mph 1012.6mb 47f 47f
5:00pm 15.5ft 14s 22 27 mph 1011.7mb 47f 49f
4:00pm 15.5ft 14s 27 34 mph 1010.6mb 47f 49f
1:00pm 19.5ft 15s 27 34 mph 1009.2mb 47f 46f
12:00pm 20.5ft 14s 29 43 mph 1008.3mb 47f 47f
11:00am 20ft 14s 38 49 mph 1008.3mb 47f 49f
10:00am 20.5ft 14s 36 47 mph 1008.8mb 47f 48f
9:00am 19.5ft 14s 34 43 mph 1009.6mb 47f 49f
8:00am 19ft 15s 31 40 mph 1010.3mb 47f 48f
7:00am 19.5ft 14s 31 40 mph 1010.9mb 47f 48f
6:00am 21ft 15s 29 36 mph 1011.3mb 47f 48f
5:00am 20.5ft 16s 25 31 mph 1012.3mb 47f 48f
4:00am 24.5ft 16s 25 29 mph 1012.9mb 47f 48f
3:00am 22.5ft 15s 22 27 mph 1012.9mb 47f 48f
2:00am 22.5ft 16s 20 22 mph 1013mb 47f 48f
1:00am 24.5ft 18s 16 25 mph 1012.7mb 47f 46f
12:00am  -   -  20
mph
1011.8mb - 48f
Sat 04/19 11:00pm 24.5ft 17s 20 29 mph 1011.1mb 47f 48f
10:00pm 25ft 16s 16 20 mph 1010.4mb 47f 47f
9:00pm 24.5ft 15s 22 27 mph 1008.6mb 47f 48f
8:00pm 24.5ft 17s 22 31 mph 1006.9mb 47f 48f
7:00pm 21.5ft 16s 25 31 mph 1005.5mb 47f 48f
6:00pm 22.5ft 14s 25 31 mph 1004mb 47f 48f
5:00pm 16.5ft 12s 29 36 mph 1002.3mb 47f 47f
4:00pm 15.5ft 11s 27 31 mph 1000.5mb 47f 47f
3:00pm 15ft 12s 27 34 mph 998.7mb 47f 47f
2:00pm 15.5ft 11s 27 34 mph 996.7mb 47f 47f
1:00pm 16.5ft 11s 27 31 mph 995.2mb 47f 48f
12:00pm 17.5ft 11s 29 36 mph 994.1mb 47f 48f